sensor_id;sensor_type;location;lat;lon;timestamp;pressure;altitude;pressure_sealevel;temperature;humidity
26178;BME280;13924;47.670;10.310;2023-04-07T00:00:38;93240;;;5.5;100.0
26178;BME280;13924;47.670;10.310;2023-04-07T00:15:39;93250;;;5.6;100.0
26178;BME280;13924;47.670;10.310;2023-04-07T00:30:39;93220;;;5.6;100.0
26178;BME280;13924;47.670;10.310;2023-04-07T00:45:40;93200;;;5.4;100.0
26178;BME280;13924;47.670;10.310;2023-04-07T01:00:44;93190;;;5.5;100.0
26178;BME280;13924;47.670;10.310;2023-04-07T01:01:37;93190;;;5.5;100.0
26178;BME280;13924;47.670;10.310;2023-04-07T01:15:43;93160;;;5.3;100.0
26178;BME280;13924;47.670;10.310;2023-04-07T01:30:43;93140;;;5.3;100.0
26178;BME280;13924;47.670;10.310;2023-04-07T01:45:43;93150;;;5.2;100.0
26178;BME280;13924;47.670;10.310;2023-04-07T02:00:42;93130;;;5.3;100.0
26178;BME280;13924;47.670;10.310;2023-04-07T02:15:43;93120;;;5.0;100.0
26178;BME280;13924;47.670;10.310;2023-04-07T02:30:44;93110;;;4.9;100.0
26178;BME280;13924;47.670;10.310;2023-04-07T02:45:45;93080;;;4.7;100.0
26178;BME280;13924;47.670;10.310;2023-04-07T03:00:46;93060;;;4.6;100.0
26178;BME280;13924;47.670;10.310;2023-04-07T03:15:45;93040;;;4.7;100.0
26178;BME280;13924;47.670;10.310;2023-04-07T03:30:45;93040;;;4.8;100.0
26178;BME280;13924;47.670;10.310;2023-04-07T03:45:46;93020;;;4.7;100.0
26178;BME280;13924;47.670;10.310;2023-04-07T04:00:47;93010;;;4.7;100.0
26178;BME280;13924;47.670;10.310;2023-04-07T04:15:47;93000;;;4.8;100.0
26178;BME280;13924;47.670;10.310;2023-04-07T04:30:47;93000;;;4.7;100.0
26178;BME280;13924;47.670;10.310;2023-04-07T04:43:50;93000;;;4.7;100.0
26178;BME280;13924;47.670;10.310;2023-04-07T04:58:50;92990;;;4.9;100.0
26178;BME280;13924;47.670;10.310;2023-04-07T05:13:52;92970;;;4.9;100.0
26178;BME280;13924;47.670;10.310;2023-04-07T05:28:51;92990;;;4.9;100.0
26178;BME280;13924;47.670;10.310;2023-04-07T05:43:52;92990;;;4.5;100.0
26178;BME280;13924;47.670;10.310;2023-04-07T06:13:53;92980;;;4.7;100.0
26178;BME280;13924;47.670;10.310;2023-04-07T06:28:54;92990;;;4.7;100.0
26178;BME280;13924;47.670;10.310;2023-04-07T06:43:54;92980;;;5.5;100.0
26178;BME280;13924;47.670;10.310;2023-04-07T06:58:54;92960;;;6.0;100.0
26178;BME280;13924;47.670;10.310;2023-04-07T07:13:55;92950;;;6.7;100.0
26178;BME280;13924;47.670;10.310;2023-04-07T07:28:56;92950;;;7.3;100.0
26178;BME280;13924;47.670;10.310;2023-04-07T07:43:56;92940;;;7.8;100.0
26178;BME280;13924;47.670;10.310;2023-04-07T07:58:57;92930;;;8.0;98.6
26178;BME280;13924;47.670;10.310;2023-04-07T08:13:57;92930;;;8.4;93.9
26178;BME280;13924;47.670;10.310;2023-04-07T08:28:58;92930;;;8.7;90.1
26178;BME280;13924;47.670;10.310;2023-04-07T08:44:00;92930;;;8.9;84.5
26178;BME280;13924;47.670;10.310;2023-04-07T08:59:00;92920;;;9.2;70.9
26178;BME280;13924;47.670;10.310;2023-04-07T09:13:59;92920;;;9.9;68.7
26178;BME280;13924;47.670;10.310;2023-04-07T09:29:00;92920;;;10.4;62.8
26178;BME280;13924;47.670;10.310;2023-04-07T09:44:00;92900;;;11.0;63.6
26178;BME280;13924;47.670;10.310;2023-04-07T09:59:01;92910;;;10.3;73.3
26178;BME280;13924;47.670;10.310;2023-04-07T10:14:01;92920;;;10.0;87.3
26178;BME280;13924;47.670;10.310;2023-04-07T10:29:07;92910;;;10.0;86.0
26178;BME280;13924;47.670;10.310;2023-04-07T10:44:04;92910;;;10.0;86.0
26178;BME280;13924;47.670;10.310;2023-04-07T10:59:13;92900;;;11.8;68.4
26178;BME280;13924;47.670;10.310;2023-04-07T11:14:03;92910;;;13.1;60.0
26178;BME280;13924;47.670;10.310;2023-04-07T11:29:04;92920;;;12.6;54.4
26178;BME280;13924;47.670;10.310;2023-04-07T11:44:06;92910;;;12.1;52.4
26178;BME280;13924;47.670;10.310;2023-04-07T11:59:05;92910;;;13.5;53.6
26178;BME280;13924;47.670;10.310;2023-04-07T12:14:06;92910;;;14.7;48.4
26178;BME280;13924;47.670;10.310;2023-04-07T12:29:05;92920;;;13.3;59.0
26178;BME280;13924;47.670;10.310;2023-04-07T12:44:08;92930;;;12.1;64.5
26178;BME280;13924;47.670;10.310;2023-04-07T12:59:07;92930;;;11.5;75.3
26178;BME280;13924;47.670;10.310;2023-04-07T13:14:08;92920;;;11.1;79.4
26178;BME280;13924;47.670;10.310;2023-04-07T13:29:08;92910;;;10.9;79.3
26178;BME280;13924;47.670;10.310;2023-04-07T13:44:08;92920;;;10.5;81.2
26178;BME280;13924;47.670;10.310;2023-04-07T13:59:09;92930;;;10.2;81.6
26178;BME280;13924;47.670;10.310;2023-04-07T14:14:10;92930;;;10.0;76.0
26178;BME280;13924;47.670;10.310;2023-04-07T14:29:10;92940;;;10.1;73.1
26178;BME280;13924;47.670;10.310;2023-04-07T14:44:10;92930;;;9.8;64.7
26178;BME280;13924;47.670;10.310;2023-04-07T14:59:11;92950;;;10.0;71.5
26178;BME280;13924;47.670;10.310;2023-04-07T15:14:13;92950;;;9.5;100.0
26178;BME280;13924;47.670;10.310;2023-04-07T15:29:13;92960;;;9.3;100.0
26178;BME280;13924;47.670;10.310;2023-04-07T15:44:16;92970;;;9.1;100.0
26178;BME280;13924;47.670;10.310;2023-04-07T15:59:14;92990;;;8.6;100.0
26178;BME280;13924;47.670;10.310;2023-04-07T16:14:18;93010;;;7.6;100.0
26178;BME280;13924;47.670;10.310;2023-04-07T16:29:15;93090;;;7.5;100.0
26178;BME280;13924;47.670;10.310;2023-04-07T16:44:15;93180;;;6.7;100.0
26178;BME280;13924;47.670;10.310;2023-04-07T16:59:15;93390;;;6.0;100.0
26178;BME280;13924;47.670;10.310;2023-04-07T17:14:16;93340;;;6.0;100.0
26178;BME280;13924;47.670;10.310;2023-04-07T17:29:17;93280;;;5.8;100.0
26178;BME280;13924;47.670;10.310;2023-04-07T17:44:18;93420;;;4.9;100.0
26178;BME280;13924;47.670;10.310;2023-04-07T17:59:18;93450;;;5.0;100.0
26178;BME280;13924;47.670;10.310;2023-04-07T18:14:19;93510;;;4.7;100.0
26178;BME280;13924;47.670;10.310;2023-04-07T18:29:18;93550;;;4.9;100.0
26178;BME280;13924;47.670;10.310;2023-04-07T18:44:19;93560;;;4.8;100.0
26178;BME280;13924;47.670;10.310;2023-04-07T18:59:20;93620;;;5.0;100.0
26178;BME280;13924;47.670;10.310;2023-04-07T19:14:19;93670;;;4.7;100.0
26178;BME280;13924;47.670;10.310;2023-04-07T19:29:21;93730;;;4.8;100.0
26178;BME280;13924;47.670;10.310;2023-04-07T19:44:26;93680;;;4.7;100.0
26178;BME280;13924;47.670;10.310;2023-04-07T19:59:22;93570;;;4.8;100.0
26178;BME280;13924;47.670;10.310;2023-04-07T20:14:22;93600;;;4.6;100.0
26178;BME280;13924;47.670;10.310;2023-04-07T20:29:22;93660;;;4.4;100.0
26178;BME280;13924;47.670;10.310;2023-04-07T20:44:23;93700;;;4.3;100.0
26178;BME280;13924;47.670;10.310;2023-04-07T20:59:23;93650;;;4.6;100.0
26178;BME280;13924;47.670;10.310;2023-04-07T21:14:25;93750;;;4.3;100.0
26178;BME280;13924;47.670;10.310;2023-04-07T21:29:28;93840;;;4.2;100.0
26178;BME280;13924;47.670;10.310;2023-04-07T21:44:26;93860;;;4.1;100.0
26178;BME280;13924;47.670;10.310;2023-04-07T21:59:27;93880;;;4.1;100.0
26178;BME280;13924;47.670;10.310;2023-04-07T22:00:46;93870;;;4.1;100.0
26178;BME280;13924;47.670;10.310;2023-04-07T22:15:40;93900;;;4.2;100.0
26178;BME280;13924;47.670;10.310;2023-04-07T22:30:42;93910;;;4.2;100.0
26178;BME280;13924;47.670;10.310;2023-04-07T22:45:40;93920;;;4.1;100.0
26178;BME280;13924;47.670;10.310;2023-04-07T23:00:42;93930;;;4.0;100.0
26178;BME280;13924;47.670;10.310;2023-04-07T23:15:42;93930;;;4.0;100.0
26178;BME280;13924;47.670;10.310;2023-04-07T23:30:43;93950;;;4.1;100.0
26178;BME280;13924;47.670;10.310;2023-04-07T23:45:41;93950;;;4.2;100.0
